Estación Meteorológica Peña el Pijo (Robertgarden) [ 07/23/19 01:23:57 CEST ]

Fecha Hora Presion(HPa) Temp (°C) Humedad % Rocio (°C) Viento ( m/s) Direccion Lluvia 1Hora(mm) Lluvia 24H(mm) LLuvia Total(mm)
2019-Jun-01 01:01:47 1015.100 21.9 70 16.2         318.05
2019-Jun-01 02:02:01 1014.600 25.2 74 20.2         318.05
2019-Jun-01 03:08:27 1014.300 21.3 77 17.1         318.05
2019-Jun-01 04:03:12 1014.100 21.5 79 17.7         318.05
2019-Jun-01 05:01:47 1013.800 26.4 82 23.1         318.05
2019-Jun-01 06:01:52 1013.700 25.9 84 23.0         318.05
2019-Jun-01 07:01:52 1013.900 21.6 84 18.8         318.05
2019-Jun-01 08:01:47 1013.800 16.4 85 13.9         318.05
2019-Jun-01 09:01:39 1013.900 17.5 66 11.1         318.05
2019-Jun-01 10:01:50 1013.800 21.3 52 11.0         318.05
2019-Jun-01 11:02:06 1013.700 24.7 38 9.4 0.5 NNE     318.05
2019-Jun-01 12:01:50 1013.700 27.4 32 9.2         318.05
2019-Jun-01 13:01:42 1013.700 27.6 26 6.2 2.7 NNE     318.05
2019-Jun-01 14:01:51 1013.400 27.9 24 5.2         318.05
2019-Jun-01 15:01:47 1012.800 29.3 23 5.8         318.05
2019-Jun-01 16:01:47 1012.400 30.1 21 5.3         318.05
2019-Jun-01 17:02:07 1012.000 29.7 21 5.0         318.05
2019-Jun-01 18:01:50 1011.900 28.6 20 3.5         318.05
2019-Jun-01 19:01:50 1011.800 27.1 21 2.9         318.05
2019-Jun-01 20:01:55 1012.000 24.7 23 2.0         318.05
2019-Jun-01 21:01:40 1012.300 21.3 29 2.5         318.05
2019-Jun-01 22:01:38 1012.800 18.2 38 3.6         318.05
2019-Jun-01 23:01:42 1013.300 18.5 49 7.6         318.05

Temperatura Máxima:30°    Temperatura Mínima:16°
Presión Máxima:1015.100 Hpa    Presión Mínima:1011.800 Hpa


Volver